Polis 139-9950 — SFC7700 — position and weather

sailwx.info

Track history (hours):
 
Tides and Currents Weather Stations Pressure Air Temp Water Temp Dewpoint Dewpoint Depression Visibility Wind Speed Wind Dir Waves Ship Positions

Polis 139-9950

Last reported at 2017-Oct-18 13:00 UTC. Time now 2017-Oct-18 13:29 UTC.
Position N 59°19' E 018°10'.

Length 16 m.

Type: Law enforcement. MMSI: 265565600.

Date/timePositionNaut miles runAvg speedWind from/ knotsBaromVisibWave heightAir tempDewpointWater temp
2017-Oct-18 13:00N 59°19' E 018°10'0 0.0
2017-Oct-18 12:30N 59°19' E 018°10'0 0.0
2017-Oct-18 12:00N 59°19' E 018°10'0 0.0
2017-Oct-18 11:30N 59°19' E 018°10'0 0.0
2017-Oct-18 11:00N 59°19' E 018°10'0 0.0
2017-Oct-18 10:30N 59°19' E 018°10'0 0.0
2017-Oct-18 10:00N 59°19' E 018°10'0 0.0
2017-Oct-18 09:30N 59°19' E 018°10'0 0.0
2017-Oct-18 09:00N 59°19' E 018°10'0 0.0
2017-Oct-18 08:30N 59°19' E 018°10'0 0.0
2017-Oct-18 08:00N 59°19' E 018°10'0 0.0
2017-Oct-18 07:30N 59°19' E 018°10'0 0.0
2017-Oct-18 07:00N 59°19' E 018°10'0 0.0
2017-Oct-18 06:29N 59°19' E 018°10'0 0.0
2017-Oct-18 05:59N 59°19' E 018°10'0 0.0
2017-Oct-18 05:18N 59°19' E 018°10'0 0.0
2017-Oct-18 04:57N 59°19' E 018°10'0 0.0
2017-Oct-18 04:27N 59°19' E 018°10'0 0.0
2017-Oct-18 03:52N 59°19' E 018°10'0 0.0
2017-Oct-18 03:28N 59°19' E 018°10'0 0.0
2017-Oct-18 03:00N 59°19' E 018°10'0 0.0
2017-Oct-18 02:30N 59°19' E 018°10'0 0.0
2017-Oct-18 02:00N 59°19' E 018°10'0 0.0
2017-Oct-18 01:30N 59°19' E 018°10'0 0.0
2017-Oct-18 01:00N 59°19' E 018°10'0 0.0
2017-Oct-18 00:30N 59°19' E 018°10'0 0.0
2017-Oct-18 00:00N 59°19' E 018°10'0 0.0
2017-Oct-17 23:30N 59°19' E 018°10'0 0.0
2017-Oct-17 23:00N 59°19' E 018°10'0 0.0
2017-Oct-17 22:30N 59°19' E 018°10'0 0.0
2017-Oct-17 22:00N 59°19' E 018°10'0 0.0
2017-Oct-17 21:30N 59°19' E 018°10'0 0.0
2017-Oct-17 21:00N 59°19' E 018°10'0 0.0
2017-Oct-17 20:30N 59°19' E 018°10'0 0.0
2017-Oct-17 20:00N 59°19' E 018°10'0 0.0
2017-Oct-17 19:30N 59°19' E 018°10'0 0.0
2017-Oct-17 18:59N 59°19' E 018°10'4 8.0
2017-Oct-17 18:30N 59°22' E 018°16'4 7.9
2017-Oct-17 18:00N 59°24' E 018°22'2 3.7
2017-Oct-17 17:23N 59°24' E 018°27'3 9.4
2017-Oct-17 17:00N 59°23' E 018°20'612.7
2017-Oct-17 16:30N 59°19' E 018°10'0 0.0
2017-Oct-17 16:00N 59°19' E 018°10'0 0.0
2017-Oct-17 15:30N 59°19' E 018°10'1 3.0
2017-Oct-17 15:00N 59°20' E 018°11'3 6.1
2017-Oct-17 14:30N 59°23' E 018°15'5 9.8
2017-Oct-17 14:01N 59°23' E 018°06'1 1.6
2017-Oct-17 13:30N 59°23' E 018°06'3 5.2
2017-Oct-17 13:00N 59°21' E 018°09'1 2.9
2017-Oct-17 12:31N 59°19' E 018°10'0 0.0
2017-Oct-17 12:00N 59°19' E 018°10'0 0.0
2017-Oct-17 11:30N 59°19' E 018°10'0 0.0
2017-Oct-17 11:00N 59°19' E 018°10'0 0.0
2017-Oct-17 10:30N 59°19' E 018°10'0 0.0
2017-Oct-17 10:00N 59°19' E 018°10'0 0.0
2017-Oct-17 09:30N 59°19' E 018°10'0 0.0
2017-Oct-17 09:00N 59°19' E 018°10'0 0.0
2017-Oct-17 08:30N 59°19' E 018°10'0 0.0
2017-Oct-17 08:00N 59°19' E 018°10'0 0.0
2017-Oct-17 07:30N 59°19' E 018°10'0 0.0
2017-Oct-17 07:00N 59°19' E 018°10'0 0.0
2017-Oct-17 06:31N 59°19' E 018°10'0 0.0
2017-Oct-17 06:00N 59°19' E 018°10'0 0.0
2017-Oct-17 05:31N 59°19' E 018°10'0 0.0
2017-Oct-17 05:00N 59°19' E 018°10'0 0.0
2017-Oct-17 04:30N 59°19' E 018°10'0 0.0
2017-Oct-17 04:00N 59°19' E 018°10'0 0.0
2017-Oct-17 03:31N 59°19' E 018°10'0 0.0
2017-Oct-17 03:01N 59°19' E 018°10'0 0.0
2017-Oct-17 02:31N 59°19' E 018°10'0 0.0
2017-Oct-17 02:01N 59°19' E 018°10'0 0.0
2017-Oct-17 01:30N 59°19' E 018°10'0 0.0
2017-Oct-17 01:00N 59°19' E 018°10'0 0.0
2017-Oct-17 00:30N 59°19' E 018°10'0 0.0
2017-Oct-17 00:01N 59°19' E 018°10'0 0.0
2017-Oct-16 23:30N 59°19' E 018°10'0 0.0
2017-Oct-16 23:00N 59°19' E 018°10'0 0.0
2017-Oct-16 22:30N 59°19' E 018°10'0 0.0
2017-Oct-16 22:00N 59°19' E 018°10'0 0.0
2017-Oct-16 21:30N 59°19' E 018°10'0 0.0
2017-Oct-16 21:01N 59°19' E 018°10'0 0.0
2017-Oct-16 20:31N 59°19' E 018°10'0 0.0
2017-Oct-16 20:00N 59°19' E 018°10'0 0.0
2017-Oct-16 19:30N 59°19' E 018°10'0 0.0
2017-Oct-16 19:01N 59°19' E 018°10'0 0.0
2017-Oct-16 18:30N 59°19' E 018°10'0 0.0
2017-Oct-16 18:00N 59°19' E 018°10'0 0.0
2017-Oct-16 17:30N 59°19' E 018°10'0 0.0
2017-Oct-16 17:00N 59°19' E 018°10'0 0.0
2017-Oct-16 16:30N 59°19' E 018°10'0 0.0
2017-Oct-16 16:00N 59°19' E 018°10'0 0.0
2017-Oct-16 15:31N 59°19' E 018°10'0 0.0
2017-Oct-16 15:00N 59°19' E 018°10'0 0.0
2017-Oct-16 14:00N 59°19' E 018°10'0 0.0
2017-Oct-16 13:30N 59°19' E 018°10'0 0.0
2017-Oct-16 13:00N 59°19' E 018°10'0 0.0
2017-Oct-16 12:30N 59°19' E 018°10'0 0.0
2017-Oct-16 12:01N 59°19' E 018°10'0 0.0
2017-Oct-16 11:30N 59°19' E 018°10'0 0.0
2017-Oct-16 11:00N 59°19' E 018°10'0 0.0
2017-Oct-16 10:30N 59°19' E 018°10'0 0.0
2017-Oct-16 10:00N 59°19' E 018°10'0 0.0
2017-Oct-16 09:31N 59°19' E 018°10'0 0.0
2017-Oct-16 09:00N 59°19' E 018°10'0 0.0
2017-Oct-16 08:31N 59°19' E 018°10'0 0.0
2017-Oct-16 08:00N 59°19' E 018°10'0 0.0
2017-Oct-16 07:30N 59°19' E 018°10'0 0.0
2017-Oct-16 07:01N 59°19' E 018°10'0 0.0
2017-Oct-16 06:30N 59°19' E 018°10'0 0.0
2017-Oct-16 06:00N 59°19' E 018°10'0 0.0
2017-Oct-16 05:31N 59°19' E 018°10'0 0.0
2017-Oct-16 05:00N 59°19' E 018°10'0 0.0
2017-Oct-16 04:30N 59°19' E 018°10'0 0.0
2017-Oct-16 04:01N 59°19' E 018°10'0 0.0
2017-Oct-16 03:31N 59°19' E 018°10'0 0.0
2017-Oct-16 03:00N 59°19' E 018°10'0 0.0
2017-Oct-16 02:30N 59°19' E 018°10'0 0.0
2017-Oct-16 02:00N 59°19' E 018°10'0 0.0
2017-Oct-16 01:31N 59°19' E 018°10'0 0.0
2017-Oct-16 01:00N 59°19' E 018°10'0 0.0
2017-Oct-16 00:30N 59°19' E 018°10'0 0.0
2017-Oct-16 00:00N 59°19' E 018°10'0 0.0
2017-Oct-15 23:30N 59°19' E 018°10'0 0.0
2017-Oct-15 23:01N 59°19' E 018°10'0 0.0
2017-Oct-15 22:31N 59°19' E 018°10'0 0.0
2017-Oct-15 22:01N 59°19' E 018°10'0 0.0
2017-Oct-15 21:30N 59°19' E 018°10'0 0.0
2017-Oct-15 21:01N 59°19' E 018°10'0 0.0
2017-Oct-15 20:30N 59°19' E 018°10'0 0.0
2017-Oct-15 20:01N 59°19' E 018°10'0 0.0
2017-Oct-15 19:30N 59°19' E 018°10'0 0.0
2017-Oct-15 19:01N 59°19' E 018°10'0 0.0
2017-Oct-15 18:31N 59°19' E 018°10'0 0.0
2017-Oct-15 18:01N 59°19' E 018°10'0 0.0
2017-Oct-15 17:30N 59°19' E 018°10'0 0.0
2017-Oct-15 17:00N 59°19' E 018°10'0 0.0
2017-Oct-15 16:30N 59°19' E 018°10'0 0.0
2017-Oct-15 16:00N 59°19' E 018°10'0 0.0
2017-Oct-15 15:31N 59°19' E 018°10'0 0.0
2017-Oct-15 15:00N 59°19' E 018°10'0 0.0
2017-Oct-15 14:01N 59°19' E 018°10'0 0.0
2017-Oct-15 13:30N 59°19' E 018°10'0 0.0
2017-Oct-15 13:01N 59°19' E 018°10'0 0.0
2017-Oct-15 12:30N 59°19' E 018°10'0 0.0
2017-Oct-15 12:01N 59°19' E 018°10'0 0.0
2017-Oct-15 11:31N 59°19' E 018°10'0 0.0
2017-Oct-15 11:01N 59°19' E 018°10'5 9.6
2017-Oct-15 10:31N 59°22' E 018°17'4 7.2
2017-Oct-15 10:00N 59°25' E 018°22'3 0.2
2017-Oct-14 18:00N 59°25' E 018°28'510.8
2017-Oct-14 17:30N 59°22' E 018°19'611.4
2017-Oct-14 17:00N 59°19' E 018°10'611.5
2017-Oct-14 16:30N 59°22' E 018°19'1213.4
2017-Oct-14 15:37N 59°28' E 018°40'2 2.0
2017-Oct-14 14:31N 59°30' E 018°39'0 5.5
2017-Oct-14 14:28N 59°30' E 018°39'919.2
2017-Oct-14 14:00N 59°25' E 018°25'1019.8
2017-Oct-14 13:30N 59°19' E 018°10'0 0.0
2017-Oct-14 13:01N 59°19' E 018°10'0 0.0
2017-Oct-14 12:30N 59°19' E 018°10'0 0.0
2017-Oct-14 12:00N 59°19' E 018°10'0 0.0
2017-Oct-14 11:30N 59°19' E 018°10'0 0.0
2017-Oct-14 11:01N 59°19' E 018°10'0 0.0
2017-Oct-14 10:30N 59°19' E 018°10'0 0.0
2017-Oct-14 10:00N 59°19' E 018°10'0 0.0
2017-Oct-14 09:30N 59°19' E 018°10'0 0.0
2017-Oct-14 09:01N 59°19' E 018°10'0 0.0
2017-Oct-14 08:31N 59°19' E 018°10'0 0.0
2017-Oct-14 08:00N 59°19' E 018°10'0 0.0
2017-Oct-14 07:30N 59°19' E 018°10'0 0.0
2017-Oct-14 07:01N 59°19' E 018°10'0 0.0
2017-Oct-14 06:30N 59°19' E 018°10'0 0.0
2017-Oct-14 06:01N 59°19' E 018°10'0 0.0
2017-Oct-14 05:30N 59°19' E 018°10'0 0.0
2017-Oct-14 05:01N 59°19' E 018°10'0 0.0
2017-Oct-14 04:31N 59°19' E 018°10'0 0.0
2017-Oct-14 04:00N 59°19' E 018°10'0 0.0
2017-Oct-14 03:30N 59°19' E 018°10'0 0.0
2017-Oct-14 03:00N 59°19' E 018°10'0 0.0
2017-Oct-14 02:30N 59°19' E 018°10'0 0.0
2017-Oct-14 02:00N 59°19' E 018°10'0 0.0
2017-Oct-14 01:30N 59°19' E 018°10'0 0.0
2017-Oct-14 01:01N 59°19' E 018°10'0 0.0
2017-Oct-14 00:30N 59°19' E 018°10'0 0.0
2017-Oct-14 00:01N 59°19' E 018°10'0 0.0
2017-Oct-13 23:31N 59°19' E 018°10'0 0.0
2017-Oct-13 23:01N 59°19' E 018°10'0 0.0
2017-Oct-13 22:30N 59°19' E 018°10'0 0.0
2017-Oct-13 22:00N 59°19' E 018°10'0 0.0
2017-Oct-13 21:31N 59°19' E 018°10'0 0.0
2017-Oct-13 21:01N 59°19' E 018°10'0 0.0
2017-Oct-13 20:30N 59°19' E 018°10'0 0.0
2017-Oct-13 20:00N 59°19' E 018°10'0 0.0
2017-Oct-13 19:31N 59°19' E 018°10'0 0.0
2017-Oct-13 19:00N 59°19' E 018°10'0 0.0
2017-Oct-13 18:31N 59°19' E 018°10'0 0.0
2017-Oct-13 18:01N 59°19' E 018°10'0 0.0
2017-Oct-13 17:30N 59°19' E 018°10'0 0.0
2017-Oct-13 17:00N 59°19' E 018°10'0 0.0
2017-Oct-13 16:31N 59°19' E 018°10'0 0.0
2017-Oct-13 16:01N 59°19' E 018°10'0 0.0
2017-Oct-13 15:30N 59°19' E 018°10'0 0.0
2017-Oct-13 15:01N 59°19' E 018°10'0 0.0
2017-Oct-13 14:30N 59°19' E 018°10'0 0.0
2017-Oct-13 14:01N 59°19' E 018°10'0 0.0
2017-Oct-13 13:31N 59°19' E 018°10'0 0.0
2017-Oct-13 13:00N 59°19' E 018°10'1 1.5
2017-Oct-13 12:30N 59°20' E 018°10'3 5.1
2017-Oct-13 12:00N 59°19' E 018°05'1 1.6
2017-Oct-13 11:30N 59°19' E 018°06'0 0.3
2017-Oct-13 11:00N 59°19' E 018°06'0 0.0
2017-Oct-13 10:30N 59°19' E 018°06'1 1.7
2017-Oct-13 10:00N 59°19' E 018°08'4 7.9
2017-Oct-13 09:30N 59°23' E 018°06'3 5.3
2017-Oct-13 09:00N 59°25' E 018°05'613.2
2017-Oct-13 08:31N 59°19' E 018°10'0 0.0
2017-Oct-13 08:00N 59°19' E 018°10'0 0.0
2017-Oct-13 07:30N 59°19' E 018°10'0 0.0
2017-Oct-13 07:00N 59°19' E 018°10'0 0.0
2017-Oct-13 06:30N 59°19' E 018°10'0 0.0
2017-Oct-13 06:00N 59°19' E 018°10'0 0.0
2017-Oct-13 05:30N 59°19' E 018°10'0 0.0
2017-Oct-13 05:01N 59°19' E 018°10'0 0.0
2017-Oct-13 04:30N 59°19' E 018°10'0 0.0
2017-Oct-13 04:00N 59°19' E 018°10'0 0.0
2017-Oct-13 03:30N 59°19' E 018°10'0 0.0
2017-Oct-13 03:00N 59°19' E 018°10'4 7.8
2017-Oct-13 02:30N 59°22' E 018°16'7 0.9
2017-Oct-12 19:24N 59°26' E 018°26'820.8
2017-Oct-12 19:01N 59°20' E 018°13'2 4.4
2017-Oct-12 18:30N 59°19' E 018°10'0 0.0
2017-Oct-12 18:00N 59°19' E 018°10'0 0.0
2017-Oct-12 17:31N 59°19' E 018°10'3 5.5
2017-Oct-12 17:01N 59°18' E 018°05'0 0.8
2017-Oct-12 16:30N 59°18' E 018°04'2 3.7
2017-Oct-12 16:00N 59°19' E 018°07'917.8
2017-Oct-12 15:30N 59°24' E 018°21'4 7.9
2017-Oct-12 15:01N 59°21' E 018°15'4 7.5
2017-Oct-12 14:30N 59°19' E 018°10'0 0.0
2017-Oct-12 14:00N 59°19' E 018°10'0 0.0
2017-Oct-12 13:30N 59°19' E 018°10'0 0.0
2017-Oct-12 13:00N 59°19' E 018°10'0 0.0
2017-Oct-12 12:30N 59°19' E 018°10'0 0.0
2017-Oct-12 12:00N 59°19' E 018°10'0 0.0
2017-Oct-12 11:30N 59°19' E 018°10'0 0.0
2017-Oct-12 11:00N 59°19' E 018°10'0 0.0
2017-Oct-12 10:30N 59°19' E 018°10'0 0.0
2017-Oct-12 10:00N 59°19' E 018°10'0 0.0
2017-Oct-12 09:30N 59°19' E 018°10'0 0.0
2017-Oct-12 09:00N 59°19' E 018°10'0 0.0
2017-Oct-12 08:30N 59°19' E 018°10'0 0.0
2017-Oct-12 08:00N 59°19' E 018°10'0 0.0
2017-Oct-12 07:30N 59°19' E 018°10'0 0.0
2017-Oct-12 07:00N 59°19' E 018°10'0 0.0
2017-Oct-12 06:30N 59°19' E 018°10'0 0.0
2017-Oct-12 06:00N 59°19' E 018°10'0 0.0
2017-Oct-12 05:30N 59°19' E 018°10'0 0.0
2017-Oct-12 05:00N 59°19' E 018°10'0 0.0
2017-Oct-12 04:30N 59°19' E 018°10'0 0.0
2017-Oct-12 04:00N 59°19' E 018°10'0 0.0
2017-Oct-12 03:30N 59°19' E 018°10'0 0.0
2017-Oct-12 03:00N 59°19' E 018°10'0 0.0
2017-Oct-12 02:30N 59°19' E 018°10'0 0.0
2017-Oct-12 02:00N 59°19' E 018°10'0 0.0
2017-Oct-12 01:30N 59°19' E 018°10'0 0.0
2017-Oct-12 01:00N 59°19' E 018°10'0 0.0
2017-Oct-12 00:30N 59°19' E 018°10'0 0.0
2017-Oct-12 00:00N 59°19' E 018°10'0 0.0
2017-Oct-11 23:30N 59°19' E 018°10'0 0.0
2017-Oct-11 23:00N 59°19' E 018°10'0 0.0
2017-Oct-11 22:30N 59°19' E 018°10'0 0.0
2017-Oct-11 22:00N 59°19' E 018°10'0 0.0
2017-Oct-11 21:30N 59°19' E 018°10'0 0.0
2017-Oct-11 21:00N 59°19' E 018°10'0 0.0
2017-Oct-11 20:30N 59°19' E 018°10'0 0.0
2017-Oct-11 20:00N 59°19' E 018°10'0 0.0
2017-Oct-11 19:30N 59°19' E 018°10'0 0.0
2017-Oct-11 19:00N 59°19' E 018°10'0 0.0
2017-Oct-11 18:30N 59°19' E 018°10'0 0.0
2017-Oct-11 18:00N 59°19' E 018°10'0 0.0
2017-Oct-11 17:30N 59°19' E 018°10'0 0.0
2017-Oct-11 17:00N 59°19' E 018°10'0 0.0
2017-Oct-11 00:00N 59°19' E 018°10'0 0.0
2017-Oct-10 23:30N 59°19' E 018°10'0 0.0
2017-Oct-10 23:00N 59°19' E 018°10'0 0.0
2017-Oct-10 22:30N 59°19' E 018°10'0 0.0
2017-Oct-10 22:00N 59°19' E 018°10'0 0.0
2017-Oct-10 21:30N 59°19' E 018°10'0 0.0
2017-Oct-10 21:00N 59°19' E 018°10'0 0.0
2017-Oct-10 20:30N 59°19' E 018°10'0 0.0
2017-Oct-10 20:00N 59°19' E 018°10'0 0.0
2017-Oct-10 19:30N 59°19' E 018°10'0 0.0
2017-Oct-10 19:00N 59°19' E 018°10'0 0.0
2017-Oct-10 18:30N 59°19' E 018°10'0 0.0
2017-Oct-10 18:00N 59°19' E 018°10'0 0.0
2017-Oct-10 17:30N 59°19' E 018°10'0 0.0
2017-Oct-10 17:00N 59°19' E 018°10'0 0.0
2017-Oct-10 16:30N 59°19' E 018°10'0 0.0
2017-Oct-10 16:00N 59°19' E 018°10'0 0.0
2017-Oct-10 15:30N 59°19' E 018°10'0 0.0
2017-Oct-10 15:00N 59°19' E 018°10'0 0.0
2017-Oct-10 14:00N 59°19' E 018°10'0 0.0
2017-Oct-10 13:29N 59°19' E 018°10'0 0.0
2017-Oct-10 13:00N 59°19' E 018°10'0 0.0
2017-Oct-10 12:30N 59°19' E 018°10'0 0.0
2017-Oct-10 12:00N 59°19' E 018°10'1 1.4
2017-Oct-10 11:30N 59°20' E 018°10'714.0
2017-Oct-10 11:00N 59°24' E 018°21'3 0.1
2017-Oct-09 16:38N 59°26' E 018°25'215.6
2017-Oct-09 16:30N 59°23' E 018°27'1019.8
2017-Oct-09 16:00N 59°19' E 018°10'0 0.0
2017-Oct-09 15:31N 59°19' E 018°10'0 0.0
2017-Oct-09 15:00N 59°19' E 018°10'0 0.0
2017-Oct-09 14:30N 59°19' E 018°10'0 0.0
2017-Oct-09 14:00N 59°19' E 018°10'0 0.0
2017-Oct-09 13:30N 59°19' E 018°10'3 5.2
2017-Oct-09 12:59N 59°18' E 018°05'3 5.5
2017-Oct-09 12:31N 59°19' E 017°60'5 5.8
2017-Oct-09 11:36N 59°16' E 017°51'0 0.0
2017-Oct-09 11:29N 59°16' E 017°51'2 1.3
2017-Oct-09 09:57N 59°16' E 017°47'819.3
2017-Oct-09 09:30N 59°20' E 018°02'1 2.7
2017-Oct-09 09:00N 59°18' E 018°03'2 3.1
2017-Oct-09 08:30N 59°19' E 018°06'1 2.1
2017-Oct-09 08:00N 59°19' E 018°08'1 1.7
2017-Oct-09 07:30N 59°19' E 018°10'0 0.0
2017-Oct-09 07:00N 59°19' E 018°10'0 0.0
2017-Oct-09 06:30N 59°19' E 018°10'0 0.0
2017-Oct-09 06:00N 59°19' E 018°10'0 0.0
2017-Oct-09 05:30N 59°19' E 018°10'0 0.0
2017-Oct-09 05:01N 59°19' E 018°10'0 0.0
2017-Oct-09 04:30N 59°19' E 018°10'0 0.0
2017-Oct-09 04:00N 59°19' E 018°10'0 0.0
2017-Oct-09 03:30N 59°19' E 018°10'0 0.0
2017-Oct-09 03:00N 59°19' E 018°10'0 0.0
2017-Oct-09 02:30N 59°19' E 018°10'0 0.0
2017-Oct-09 02:00N 59°19' E 018°10'0 0.0
2017-Oct-09 01:30N 59°19' E 018°10'0 0.0
2017-Oct-09 01:00N 59°19' E 018°10'0 0.0
2017-Oct-09 00:31N 59°19' E 018°10'0 0.0
2017-Oct-09 00:00N 59°19' E 018°10'0 0.0
2017-Oct-08 23:31N 59°19' E 018°10'0 0.0
2017-Oct-08 23:00N 59°19' E 018°10'0 0.0
2017-Oct-08 22:30N 59°19' E 018°10'0 0.0
2017-Oct-08 22:00N 59°19' E 018°10'0 0.1
2017-Oct-08 21:30N 59°19' E 018°10'1 1.7
2017-Oct-08 21:00N 59°20' E 018°11'713.6
2017-Oct-08 20:31N 59°24' E 018°21'3 5.1
2017-Oct-08 20:00N 59°24' E 018°26'4 7.0
2017-Oct-08 19:30N 59°22' E 018°21'510.3
2017-Oct-08 19:00N 59°20' E 018°12'1 2.5
2017-Oct-08 18:30N 59°19' E 018°10'0 0.0
2017-Oct-08 18:01N 59°19' E 018°10'0 0.0
2017-Oct-08 17:30N 59°19' E 018°10'0 0.0
2017-Oct-08 17:00N 59°19' E 018°10'0 0.0
2017-Oct-08 16:30N 59°19' E 018°10'0 0.0
2017-Oct-08 16:00N 59°19' E 018°10'0 0.0
2017-Oct-08 15:31N 59°19' E 018°10'0 0.9
2017-Oct-08 15:00N 59°19' E 018°09'2 4.8
2017-Oct-08 14:30N 59°18' E 018°04'4 8.6
2017-Oct-08 14:00N 59°19' E 017°56'918.1
2017-Oct-08 13:31N 59°27' E 017°47'0 0.8
2017-Oct-08 13:00N 59°26' E 017°46'  
Track history (hours):
 
Tides and Currents Weather Stations Pressure Air Temp Water Temp Dewpoint Dewpoint Depression Visibility Wind Speed Wind Dir Waves Ship Positions

Polis 139-9950

Last reported at 2017-Oct-18 13:00 UTC. Time now 2017-Oct-18 13:29 UTC.
Position N 59°19' E 018°10'.

Length 16 m.

Type: Law enforcement. MMSI: 265565600.

Date/timePositionNaut miles runAvg speedWind from/ knotsBaromVisibWave heightAir tempDewpointWater temp
2017-Oct-18 13:00N 59°19' E 018°10'0 0.0
2017-Oct-18 12:30N 59°19' E 018°10'0 0.0
2017-Oct-18 12:00N 59°19' E 018°10'0 0.0
2017-Oct-18 11:30N 59°19' E 018°10'0 0.0
2017-Oct-18 11:00N 59°19' E 018°10'0 0.0
2017-Oct-18 10:30N 59°19' E 018°10'0 0.0
2017-Oct-18 10:00N 59°19' E 018°10'0 0.0
2017-Oct-18 09:30N 59°19' E 018°10'0 0.0
2017-Oct-18 09:00N 59°19' E 018°10'0 0.0
2017-Oct-18 08:30N 59°19' E 018°10'0 0.0
2017-Oct-18 08:00N 59°19' E 018°10'0 0.0
2017-Oct-18 07:30N 59°19' E 018°10'0 0.0
2017-Oct-18 07:00N 59°19' E 018°10'0 0.0
2017-Oct-18 06:29N 59°19' E 018°10'0 0.0
2017-Oct-18 05:59N 59°19' E 018°10'0 0.0
2017-Oct-18 05:18N 59°19' E 018°10'0 0.0
2017-Oct-18 04:57N 59°19' E 018°10'0 0.0
2017-Oct-18 04:27N 59°19' E 018°10'0 0.0
2017-Oct-18 03:52N 59°19' E 018°10'0 0.0
2017-Oct-18 03:28N 59°19' E 018°10'0 0.0
2017-Oct-18 03:00N 59°19' E 018°10'0 0.0
2017-Oct-18 02:30N 59°19' E 018°10'0 0.0
2017-Oct-18 02:00N 59°19' E 018°10'0 0.0
2017-Oct-18 01:30N 59°19' E 018°10'0 0.0
2017-Oct-18 01:00N 59°19' E 018°10'0 0.0
2017-Oct-18 00:30N 59°19' E 018°10'0 0.0
2017-Oct-18 00:00N 59°19' E 018°10'0 0.0
2017-Oct-17 23:30N 59°19' E 018°10'0 0.0
2017-Oct-17 23:00N 59°19' E 018°10'0 0.0
2017-Oct-17 22:30N 59°19' E 018°10'0 0.0
2017-Oct-17 22:00N 59°19' E 018°10'0 0.0
2017-Oct-17 21:30N 59°19' E 018°10'0 0.0
2017-Oct-17 21:00N 59°19' E 018°10'0 0.0
2017-Oct-17 20:30N 59°19' E 018°10'0 0.0
2017-Oct-17 20:00N 59°19' E 018°10'0 0.0
2017-Oct-17 19:30N 59°19' E 018°10'0 0.0
2017-Oct-17 18:59N 59°19' E 018°10'4 8.0
2017-Oct-17 18:30N 59°22' E 018°16'4 7.9
2017-Oct-17 18:00N 59°24' E 018°22'2 3.7
2017-Oct-17 17:23N 59°24' E 018°27'3 9.4
2017-Oct-17 17:00N 59°23' E 018°20'612.7
2017-Oct-17 16:30N 59°19' E 018°10'0 0.0
2017-Oct-17 16:00N 59°19' E 018°10'0 0.0
2017-Oct-17 15:30N 59°19' E 018°10'1 3.0
2017-Oct-17 15:00N 59°20' E 018°11'3 6.1
2017-Oct-17 14:30N 59°23' E 018°15'5 9.8
2017-Oct-17 14:01N 59°23' E 018°06'1 1.6
2017-Oct-17 13:30N 59°23' E 018°06'3 5.2
2017-Oct-17 13:00N 59°21' E 018°09'1 2.9
2017-Oct-17 12:31N 59°19' E 018°10'0 0.0
2017-Oct-17 12:00N 59°19' E 018°10'0 0.0
2017-Oct-17 11:30N 59°19' E 018°10'0 0.0
2017-Oct-17 11:00N 59°19' E 018°10'0 0.0
2017-Oct-17 10:30N 59°19' E 018°10'0 0.0
2017-Oct-17 10:00N 59°19' E 018°10'0 0.0
2017-Oct-17 09:30N 59°19' E 018°10'0 0.0
2017-Oct-17 09:00N 59°19' E 018°10'0 0.0
2017-Oct-17 08:30N 59°19' E 018°10'0 0.0
2017-Oct-17 08:00N 59°19' E 018°10'0 0.0
2017-Oct-17 07:30N 59°19' E 018°10'0 0.0
2017-Oct-17 07:00N 59°19' E 018°10'0 0.0
2017-Oct-17 06:31N 59°19' E 018°10'0 0.0
2017-Oct-17 06:00N 59°19' E 018°10'0 0.0
2017-Oct-17 05:31N 59°19' E 018°10'0 0.0
2017-Oct-17 05:00N 59°19' E 018°10'0 0.0
2017-Oct-17 04:30N 59°19' E 018°10'0 0.0
2017-Oct-17 04:00N 59°19' E 018°10'0 0.0
2017-Oct-17 03:31N 59°19' E 018°10'0 0.0
2017-Oct-17 03:01N 59°19' E 018°10'0 0.0
2017-Oct-17 02:31N 59°19' E 018°10'0 0.0
2017-Oct-17 02:01N 59°19' E 018°10'0 0.0
2017-Oct-17 01:30N 59°19' E 018°10'0 0.0
2017-Oct-17 01:00N 59°19' E 018°10'0 0.0
2017-Oct-17 00:30N 59°19' E 018°10'0 0.0
2017-Oct-17 00:01N 59°19' E 018°10'0 0.0
2017-Oct-16 23:30N 59°19' E 018°10'0 0.0
2017-Oct-16 23:00N 59°19' E 018°10'0 0.0
2017-Oct-16 22:30N 59°19' E 018°10'0 0.0
2017-Oct-16 22:00N 59°19' E 018°10'0 0.0
2017-Oct-16 21:30N 59°19' E 018°10'0 0.0
2017-Oct-16 21:01N 59°19' E 018°10'0 0.0
2017-Oct-16 20:31N 59°19' E 018°10'0 0.0
2017-Oct-16 20:00N 59°19' E 018°10'0 0.0
2017-Oct-16 19:30N 59°19' E 018°10'0 0.0
2017-Oct-16 19:01N 59°19' E 018°10'0 0.0
2017-Oct-16 18:30N 59°19' E 018°10'0 0.0
2017-Oct-16 18:00N 59°19' E 018°10'0 0.0
2017-Oct-16 17:30N 59°19' E 018°10'0 0.0
2017-Oct-16 17:00N 59°19' E 018°10'0 0.0
2017-Oct-16 16:30N 59°19' E 018°10'0 0.0
2017-Oct-16 16:00N 59°19' E 018°10'0 0.0
2017-Oct-16 15:31N 59°19' E 018°10'0 0.0
2017-Oct-16 15:00N 59°19' E 018°10'0 0.0
2017-Oct-16 14:00N 59°19' E 018°10'0 0.0
2017-Oct-16 13:30N 59°19' E 018°10'0 0.0
2017-Oct-16 13:00N 59°19' E 018°10'0 0.0
2017-Oct-16 12:30N 59°19' E 018°10'0 0.0
2017-Oct-16 12:01N 59°19' E 018°10'0 0.0
2017-Oct-16 11:30N 59°19' E 018°10'0 0.0
2017-Oct-16 11:00N 59°19' E 018°10'0 0.0
2017-Oct-16 10:30N 59°19' E 018°10'0 0.0
2017-Oct-16 10:00N 59°19' E 018°10'0 0.0
2017-Oct-16 09:31N 59°19' E 018°10'0 0.0
2017-Oct-16 09:00N 59°19' E 018°10'0 0.0
2017-Oct-16 08:31N 59°19' E 018°10'0 0.0
2017-Oct-16 08:00N 59°19' E 018°10'0 0.0
2017-Oct-16 07:30N 59°19' E 018°10'0 0.0
2017-Oct-16 07:01N 59°19' E 018°10'0 0.0
2017-Oct-16 06:30N 59°19' E 018°10'0 0.0
2017-Oct-16 06:00N 59°19' E 018°10'0 0.0
2017-Oct-16 05:31N 59°19' E 018°10'0 0.0
2017-Oct-16 05:00N 59°19' E 018°10'0 0.0
2017-Oct-16 04:30N 59°19' E 018°10'0 0.0
2017-Oct-16 04:01N 59°19' E 018°10'0 0.0
2017-Oct-16 03:31N 59°19' E 018°10'0 0.0
2017-Oct-16 03:00N 59°19' E 018°10'0 0.0
2017-Oct-16 02:30N 59°19' E 018°10'0 0.0
2017-Oct-16 02:00N 59°19' E 018°10'0 0.0
2017-Oct-16 01:31N 59°19' E 018°10'0 0.0
2017-Oct-16 01:00N 59°19' E 018°10'0 0.0
2017-Oct-16 00:30N 59°19' E 018°10'0 0.0
2017-Oct-16 00:00N 59°19' E 018°10'0 0.0
2017-Oct-15 23:30N 59°19' E 018°10'0 0.0
2017-Oct-15 23:01N 59°19' E 018°10'0 0.0
2017-Oct-15 22:31N 59°19' E 018°10'0 0.0
2017-Oct-15 22:01N 59°19' E 018°10'0 0.0
2017-Oct-15 21:30N 59°19' E 018°10'0 0.0
2017-Oct-15 21:01N 59°19' E 018°10'0 0.0
2017-Oct-15 20:30N 59°19' E 018°10'0 0.0
2017-Oct-15 20:01N 59°19' E 018°10'0 0.0
2017-Oct-15 19:30N 59°19' E 018°10'0 0.0
2017-Oct-15 19:01N 59°19' E 018°10'0 0.0
2017-Oct-15 18:31N 59°19' E 018°10'0 0.0
2017-Oct-15 18:01N 59°19' E 018°10'0 0.0
2017-Oct-15 17:30N 59°19' E 018°10'0 0.0
2017-Oct-15 17:00N 59°19' E 018°10'0 0.0
2017-Oct-15 16:30N 59°19' E 018°10'0 0.0
2017-Oct-15 16:00N 59°19' E 018°10'0 0.0
2017-Oct-15 15:31N 59°19' E 018°10'0 0.0
2017-Oct-15 15:00N 59°19' E 018°10'0 0.0
2017-Oct-15 14:01N 59°19' E 018°10'0 0.0
2017-Oct-15 13:30N 59°19' E 018°10'0 0.0
2017-Oct-15 13:01N 59°19' E 018°10'0 0.0
2017-Oct-15 12:30N 59°19' E 018°10'0 0.0
2017-Oct-15 12:01N 59°19' E 018°10'0 0.0
2017-Oct-15 11:31N 59°19' E 018°10'0 0.0
2017-Oct-15 11:01N 59°19' E 018°10'5 9.6
2017-Oct-15 10:31N 59°22' E 018°17'4 7.2
2017-Oct-15 10:00N 59°25' E 018°22'3 0.2
2017-Oct-14 18:00N 59°25' E 018°28'510.8
2017-Oct-14 17:30N 59°22' E 018°19'611.4
2017-Oct-14 17:00N 59°19' E 018°10'611.5
2017-Oct-14 16:30N 59°22' E 018°19'1213.4
2017-Oct-14 15:37N 59°28' E 018°40'2 2.0
2017-Oct-14 14:31N 59°30' E 018°39'0 5.5
2017-Oct-14 14:28N 59°30' E 018°39'919.2
2017-Oct-14 14:00N 59°25' E 018°25'1019.8
2017-Oct-14 13:30N 59°19' E 018°10'0 0.0
2017-Oct-14 13:01N 59°19' E 018°10'0 0.0
2017-Oct-14 12:30N 59°19' E 018°10'0 0.0
2017-Oct-14 12:00N 59°19' E 018°10'0 0.0
2017-Oct-14 11:30N 59°19' E 018°10'0 0.0
2017-Oct-14 11:01N 59°19' E 018°10'0 0.0
2017-Oct-14 10:30N 59°19' E 018°10'0 0.0
2017-Oct-14 10:00N 59°19' E 018°10'0 0.0
2017-Oct-14 09:30N 59°19' E 018°10'0 0.0
2017-Oct-14 09:01N 59°19' E 018°10'0 0.0
2017-Oct-14 08:31N 59°19' E 018°10'0 0.0
2017-Oct-14 08:00N 59°19' E 018°10'0 0.0
2017-Oct-14 07:30N 59°19' E 018°10'0 0.0
2017-Oct-14 07:01N 59°19' E 018°10'0 0.0
2017-Oct-14 06:30N 59°19' E 018°10'0 0.0
2017-Oct-14 06:01N 59°19' E 018°10'0 0.0
2017-Oct-14 05:30N 59°19' E 018°10'0 0.0
2017-Oct-14 05:01N 59°19' E 018°10'0 0.0
2017-Oct-14 04:31N 59°19' E 018°10'0 0.0
2017-Oct-14 04:00N 59°19' E 018°10'0 0.0
2017-Oct-14 03:30N 59°19' E 018°10'0 0.0
2017-Oct-14 03:00N 59°19' E 018°10'0 0.0
2017-Oct-14 02:30N 59°19' E 018°10'0 0.0
2017-Oct-14 02:00N 59°19' E 018°10'0 0.0
2017-Oct-14 01:30N 59°19' E 018°10'0 0.0
2017-Oct-14 01:01N 59°19' E 018°10'0 0.0
2017-Oct-14 00:30N 59°19' E 018°10'0 0.0
2017-Oct-14 00:01N 59°19' E 018°10'0 0.0
2017-Oct-13 23:31N 59°19' E 018°10'0 0.0
2017-Oct-13 23:01N 59°19' E 018°10'0 0.0
2017-Oct-13 22:30N 59°19' E 018°10'0 0.0
2017-Oct-13 22:00N 59°19' E 018°10'0 0.0
2017-Oct-13 21:31N 59°19' E 018°10'0 0.0
2017-Oct-13 21:01N 59°19' E 018°10'0 0.0
2017-Oct-13 20:30N 59°19' E 018°10'0 0.0
2017-Oct-13 20:00N 59°19' E 018°10'0 0.0
2017-Oct-13 19:31N 59°19' E 018°10'0 0.0
2017-Oct-13 19:00N 59°19' E 018°10'0 0.0
2017-Oct-13 18:31N 59°19' E 018°10'0 0.0
2017-Oct-13 18:01N 59°19' E 018°10'0 0.0
2017-Oct-13 17:30N 59°19' E 018°10'0 0.0
2017-Oct-13 17:00N 59°19' E 018°10'0 0.0
2017-Oct-13 16:31N 59°19' E 018°10'0 0.0
2017-Oct-13 16:01N 59°19' E 018°10'0 0.0
2017-Oct-13 15:30N 59°19' E 018°10'0 0.0
2017-Oct-13 15:01N 59°19' E 018°10'0 0.0
2017-Oct-13 14:30N 59°19' E 018°10'0 0.0
2017-Oct-13 14:01N 59°19' E 018°10'0 0.0
2017-Oct-13 13:31N 59°19' E 018°10'0 0.0
2017-Oct-13 13:00N 59°19' E 018°10'1 1.5
2017-Oct-13 12:30N 59°20' E 018°10'3 5.1
2017-Oct-13 12:00N 59°19' E 018°05'1 1.6
2017-Oct-13 11:30N 59°19' E 018°06'0 0.3
2017-Oct-13 11:00N 59°19' E 018°06'0 0.0
2017-Oct-13 10:30N 59°19' E 018°06'1 1.7
2017-Oct-13 10:00N 59°19' E 018°08'4 7.9
2017-Oct-13 09:30N 59°23' E 018°06'3 5.3
2017-Oct-13 09:00N 59°25' E 018°05'613.2
2017-Oct-13 08:31N 59°19' E 018°10'0 0.0
2017-Oct-13 08:00N 59°19' E 018°10'0 0.0
2017-Oct-13 07:30N 59°19' E 018°10'0 0.0
2017-Oct-13 07:00N 59°19' E 018°10'0 0.0
2017-Oct-13 06:30N 59°19' E 018°10'0 0.0
2017-Oct-13 06:00N 59°19' E 018°10'0 0.0
2017-Oct-13 05:30N 59°19' E 018°10'0 0.0
2017-Oct-13 05:01N 59°19' E 018°10'0 0.0
2017-Oct-13 04:30N 59°19' E 018°10'0 0.0
2017-Oct-13 04:00N 59°19' E 018°10'0 0.0
2017-Oct-13 03:30N 59°19' E 018°10'0 0.0
2017-Oct-13 03:00N 59°19' E 018°10'4 7.8
2017-Oct-13 02:30N 59°22' E 018°16'7 0.9
2017-Oct-12 19:24N 59°26' E 018°26'820.8
2017-Oct-12 19:01N 59°20' E 018°13'2 4.4
2017-Oct-12 18:30N 59°19' E 018°10'0 0.0
2017-Oct-12 18:00N 59°19' E 018°10'0 0.0
2017-Oct-12 17:31N 59°19' E 018°10'3 5.5
2017-Oct-12 17:01N 59°18' E 018°05'0 0.8
2017-Oct-12 16:30N 59°18' E 018°04'2 3.7
2017-Oct-12 16:00N 59°19' E 018°07'917.8
2017-Oct-12 15:30N 59°24' E 018°21'4 7.9
2017-Oct-12 15:01N 59°21' E 018°15'4 7.5
2017-Oct-12 14:30N 59°19' E 018°10'0 0.0
2017-Oct-12 14:00N 59°19' E 018°10'0 0.0
2017-Oct-12 13:30N 59°19' E 018°10'0 0.0
2017-Oct-12 13:00N 59°19' E 018°10'0 0.0
2017-Oct-12 12:30N 59°19' E 018°10'0 0.0
2017-Oct-12 12:00N 59°19' E 018°10'0 0.0
2017-Oct-12 11:30N 59°19' E 018°10'0 0.0
2017-Oct-12 11:00N 59°19' E 018°10'0 0.0
2017-Oct-12 10:30N 59°19' E 018°10'0 0.0
2017-Oct-12 10:00N 59°19' E 018°10'0 0.0
2017-Oct-12 09:30N 59°19' E 018°10'0 0.0
2017-Oct-12 09:00N 59°19' E 018°10'0 0.0
2017-Oct-12 08:30N 59°19' E 018°10'0 0.0
2017-Oct-12 08:00N 59°19' E 018°10'0 0.0
2017-Oct-12 07:30N 59°19' E 018°10'0 0.0
2017-Oct-12 07:00N 59°19' E 018°10'0 0.0
2017-Oct-12 06:30N 59°19' E 018°10'0 0.0
2017-Oct-12 06:00N 59°19' E 018°10'0 0.0
2017-Oct-12 05:30N 59°19' E 018°10'0 0.0
2017-Oct-12 05:00N 59°19' E 018°10'0 0.0
2017-Oct-12 04:30N 59°19' E 018°10'0 0.0
2017-Oct-12 04:00N 59°19' E 018°10'0 0.0
2017-Oct-12 03:30N 59°19' E 018°10'0 0.0
2017-Oct-12 03:00N 59°19' E 018°10'0 0.0
2017-Oct-12 02:30N 59°19' E 018°10'0 0.0
2017-Oct-12 02:00N 59°19' E 018°10'0 0.0
2017-Oct-12 01:30N 59°19' E 018°10'0 0.0
2017-Oct-12 01:00N 59°19' E 018°10'0 0.0
2017-Oct-12 00:30N 59°19' E 018°10'0 0.0
2017-Oct-12 00:00N 59°19' E 018°10'0 0.0
2017-Oct-11 23:30N 59°19' E 018°10'0 0.0
2017-Oct-11 23:00N 59°19' E 018°10'0 0.0
2017-Oct-11 22:30N 59°19' E 018°10'0 0.0
2017-Oct-11 22:00N 59°19' E 018°10'0 0.0
2017-Oct-11 21:30N 59°19' E 018°10'0 0.0
2017-Oct-11 21:00N 59°19' E 018°10'0 0.0
2017-Oct-11 20:30N 59°19' E 018°10'0 0.0
2017-Oct-11 20:00N 59°19' E 018°10'0 0.0
2017-Oct-11 19:30N 59°19' E 018°10'0 0.0
2017-Oct-11 19:00N 59°19' E 018°10'0 0.0
2017-Oct-11 18:30N 59°19' E 018°10'0 0.0
2017-Oct-11 18:00N 59°19' E 018°10'0 0.0
2017-Oct-11 17:30N 59°19' E 018°10'0 0.0
2017-Oct-11 17:00N 59°19' E 018°10'0 0.0
2017-Oct-11 00:00N 59°19' E 018°10'0 0.0
2017-Oct-10 23:30N 59°19' E 018°10'0 0.0
2017-Oct-10 23:00N 59°19' E 018°10'0 0.0
2017-Oct-10 22:30N 59°19' E 018°10'0 0.0
2017-Oct-10 22:00N 59°19' E 018°10'0 0.0
2017-Oct-10 21:30N 59°19' E 018°10'0 0.0
2017-Oct-10 21:00N 59°19' E 018°10'0 0.0
2017-Oct-10 20:30N 59°19' E 018°10'0 0.0
2017-Oct-10 20:00N 59°19' E 018°10'0 0.0
2017-Oct-10 19:30N 59°19' E 018°10'0 0.0
2017-Oct-10 19:00N 59°19' E 018°10'0 0.0
2017-Oct-10 18:30N 59°19' E 018°10'0 0.0
2017-Oct-10 18:00N 59°19' E 018°10'0 0.0
2017-Oct-10 17:30N 59°19' E 018°10'0 0.0
2017-Oct-10 17:00N 59°19' E 018°10'0 0.0
2017-Oct-10 16:30N 59°19' E 018°10'0 0.0
2017-Oct-10 16:00N 59°19' E 018°10'0 0.0
2017-Oct-10 15:30N 59°19' E 018°10'0 0.0
2017-Oct-10 15:00N 59°19' E 018°10'0 0.0
2017-Oct-10 14:00N 59°19' E 018°10'0 0.0
2017-Oct-10 13:29N 59°19' E 018°10'0 0.0
2017-Oct-10 13:00N 59°19' E 018°10'0 0.0
2017-Oct-10 12:30N 59°19' E 018°10'0 0.0
2017-Oct-10 12:00N 59°19' E 018°10'1 1.4
2017-Oct-10 11:30N 59°20' E 018°10'714.0
2017-Oct-10 11:00N 59°24' E 018°21'3 0.1
2017-Oct-09 16:38N 59°26' E 018°25'215.6
2017-Oct-09 16:30N 59°23' E 018°27'1019.8
2017-Oct-09 16:00N 59°19' E 018°10'0 0.0
2017-Oct-09 15:31N 59°19' E 018°10'0 0.0
2017-Oct-09 15:00N 59°19' E 018°10'0 0.0
2017-Oct-09 14:30N 59°19' E 018°10'0 0.0
2017-Oct-09 14:00N 59°19' E 018°10'0 0.0
2017-Oct-09 13:30N 59°19' E 018°10'3 5.2
2017-Oct-09 12:59N 59°18' E 018°05'3 5.5
2017-Oct-09 12:31N 59°19' E 017°60'5 5.8
2017-Oct-09 11:36N 59°16' E 017°51'0 0.0
2017-Oct-09 11:29N 59°16' E 017°51'2 1.3
2017-Oct-09 09:57N 59°16' E 017°47'819.3
2017-Oct-09 09:30N 59°20' E 018°02'1 2.7
2017-Oct-09 09:00N 59°18' E 018°03'2 3.1
2017-Oct-09 08:30N 59°19' E 018°06'1 2.1
2017-Oct-09 08:00N 59°19' E 018°08'1 1.7
2017-Oct-09 07:30N 59°19' E 018°10'0 0.0
2017-Oct-09 07:00N 59°19' E 018°10'0 0.0
2017-Oct-09 06:30N 59°19' E 018°10'0 0.0
2017-Oct-09 06:00N 59°19' E 018°10'0 0.0
2017-Oct-09 05:30N 59°19' E 018°10'0 0.0
2017-Oct-09 05:01N 59°19' E 018°10'0 0.0
2017-Oct-09 04:30N 59°19' E 018°10'0 0.0
2017-Oct-09 04:00N 59°19' E 018°10'0 0.0
2017-Oct-09 03:30N 59°19' E 018°10'0 0.0
2017-Oct-09 03:00N 59°19' E 018°10'0 0.0
2017-Oct-09 02:30N 59°19' E 018°10'0 0.0
2017-Oct-09 02:00N 59°19' E 018°10'0 0.0
2017-Oct-09 01:30N 59°19' E 018°10'0 0.0
2017-Oct-09 01:00N 59°19' E 018°10'0 0.0
2017-Oct-09 00:31N 59°19' E 018°10'0 0.0
2017-Oct-09 00:00N 59°19' E 018°10'0 0.0
2017-Oct-08 23:31N 59°19' E 018°10'0 0.0
2017-Oct-08 23:00N 59°19' E 018°10'0 0.0
2017-Oct-08 22:30N 59°19' E 018°10'0 0.0
2017-Oct-08 22:00N 59°19' E 018°10'0 0.1
2017-Oct-08 21:30N 59°19' E 018°10'1 1.7
2017-Oct-08 21:00N 59°20' E 018°11'713.6
2017-Oct-08 20:31N 59°24' E 018°21'3 5.1
2017-Oct-08 20:00N 59°24' E 018°26'4 7.0
2017-Oct-08 19:30N 59°22' E 018°21'510.3
2017-Oct-08 19:00N 59°20' E 018°12'1 2.5
2017-Oct-08 18:30N 59°19' E 018°10'0 0.0
2017-Oct-08 18:01N 59°19' E 018°10'0 0.0
2017-Oct-08 17:30N 59°19' E 018°10'0 0.0
2017-Oct-08 17:00N 59°19' E 018°10'0 0.0
2017-Oct-08 16:30N 59°19' E 018°10'0 0.0
2017-Oct-08 16:00N 59°19' E 018°10'0 0.0
2017-Oct-08 15:31N 59°19' E 018°10'0 0.9
2017-Oct-08 15:00N 59°19' E 018°09'2 4.8
2017-Oct-08 14:30N 59°18' E 018°04'4 8.6
2017-Oct-08 14:00N 59°19' E 017°56'918.1
2017-Oct-08 13:31N 59°27' E 017°47'0 0.8
2017-Oct-08 13:00N 59°26' E 017°46'  

Dump ship's entire track history